This is the latest recevied weather packets stored in our database for station/object WX4FUN-13. If no packets are shown the sender has not sent any weather packets the latest 1 day(s).
| Time | Temp. | Humidity | Pressure | Rain* | Wind** | Luminosity | Snow |
|---|---|---|---|---|---|---|---|
| 1778081311 | 20° C | 68% | 1009.4 hPa | 0 mm | - | 266 W/m² | - |
| 1778078892 | 18.89° C | 73% | 1009.8 hPa | 0 mm | - | 164 W/m² | - |
| 1778078295 | 18.89° C | 73% | 1009.9 hPa | 0 mm | - | 155 W/m² | - |
| 1778077694 | 18.89° C | 73% | 1009.9 hPa | 0 mm | - | 171 W/m² | - |
| 1778077092 | 18.33° C | 74% | 1010 hPa | 0 mm | - | 227 W/m² | - |
| 1778076494 | 18.33° C | 75% | 1009.9 hPa | 0 mm | - | 217 W/m² | - |
| 1778075894 | 18.33° C | 75% | 1009.9 hPa | 0 mm | - | 207 W/m² | - |
| 1778074680 | 17.78° C | 77% | 1009.7 hPa | 0 mm | - | 203 W/m² | - |
| 1778071667 | 16.67° C | 80% | 1010.1 hPa | 0 mm | - | 113 W/m² | - |
| 1778069866 | 16.11° C | 81% | 1010.4 hPa | 0 mm | - | 117 W/m² | - |
| 1778066236 | 15.56° C | 83% | 1010.1 hPa | 0 mm | - | 144 W/m² | - |
| 1778065637 | 15° C | 84% | 1010.6 hPa | 0 mm | - | 80 W/m² | - |
| 1778064408 | 14.44° C | 85% | 1010.5 hPa | 0 mm | - | 35 W/m² | - |
| 1778063794 | 14.44° C | 85% | 1010.6 hPa | 0 mm | - | 21 W/m² | - |
| 1778063194 | 14.44° C | 85% | 1010.4 hPa | 0 mm | - | 27 W/m² | - |
| 1778062593 | 14.44° C | 85% | 1010.2 hPa | 0 mm | - | 32 W/m² | - |
| 1778061993 | 14.44° C | 85% | 1010.2 hPa | 0 mm | - | 13 W/m² | - |
| 1778060778 | 14.44° C | 85% | 1010.2 hPa | 0 mm | - | 4 W/m² | - |
| 1778060182 | 14.44° C | 84% | 1010.3 hPa | 0 mm | - | 0 W/m² | - |
| 1778058379 | 14.44° C | 83% | 1010.3 hPa | 0 mm | - | 0 W/m² | - |
| 1778057765 | 14.44° C | 83% | 1010.2 hPa | 0 mm | - | 0 W/m² | - |
| 1778057166 | 14.44° C | 82% | 1010.3 hPa | 0 mm | - | 0 W/m² | - |
| 1778055365 | 15° C | 81% | 1010.3 hPa | 0 mm | - | 0 W/m² | - |
| 1778054153 | 15.56° C | 80% | 1010.3 hPa | 0 mm | - | 0 W/m² | - |
| 1778053550 | 15.56° C | 80% | 1010.3 hPa | 0 mm | - | 0 W/m² | - |
* Rain latest hour (hover to see other rain measurements)
** Current wind speed in m/s (hover to see current wind gust speed)